createdAt,value
2019-04-04T00:00:27.174Z,18.07
2019-04-04T00:02:53.031Z,17.60
2019-04-04T00:05:18.867Z,15.70
2019-04-04T00:07:44.740Z,16.47
2019-04-04T00:10:10.807Z,15.07
2019-04-04T00:12:36.976Z,15.57
2019-04-04T00:15:04.937Z,16.60
2019-04-04T00:17:30.797Z,14.67
2019-04-04T00:19:56.660Z,14.43
2019-04-04T00:22:22.498Z,14.77
2019-04-04T00:24:48.360Z,14.70
2019-04-04T00:27:14.191Z,14.37
2019-04-04T00:29:40.047Z,14.20
2019-04-04T00:32:05.989Z,15.23
2019-04-04T00:34:31.844Z,15.00
2019-04-04T00:36:57.697Z,12.33
2019-04-04T00:39:23.595Z,15.10
2019-04-04T00:41:49.534Z,14.43
2019-04-04T00:44:15.372Z,13.63
2019-04-04T00:46:41.245Z,13.97
2019-04-04T00:49:07.087Z,14.77
2019-04-04T00:51:33.054Z,12.63
2019-04-04T00:53:58.891Z,12.27
2019-04-04T00:56:24.733Z,13.67
2019-04-04T00:58:52.068Z,14.50
2019-04-04T01:01:18.347Z,13.83
2019-04-04T01:03:44.223Z,15.87
2019-04-04T01:06:10.076Z,14.80
2019-04-04T01:08:38.014Z,14.67
2019-04-04T01:11:03.687Z,14.03
2019-04-04T01:13:29.544Z,17.10
2019-04-04T01:15:55.378Z,14.20
2019-04-04T01:18:21.237Z,16.07
2019-04-04T01:20:47.109Z,14.83
2019-04-04T01:23:12.976Z,18.03
2019-04-04T01:25:38.937Z,14.50
2019-04-04T01:28:07.797Z,16.83
2019-04-04T01:30:32.544Z,15.10
2019-04-04T01:32:58.409Z,15.57
2019-04-04T01:35:24.265Z,20.27
2019-04-04T01:37:50.130Z,20.57
2019-04-04T01:40:15.978Z,18.87
2019-04-04T01:42:41.821Z,21.07
2019-04-04T01:45:07.863Z,20.27
2019-04-04T01:47:33.716Z,25.50
2019-04-04T01:49:59.581Z,19.53
2019-04-04T01:52:27.769Z,21.63
2019-04-04T01:54:53.230Z,23.33
2019-04-04T01:57:19.061Z,23.87
2019-04-04T01:59:44.903Z,31.10
2019-04-04T02:02:10.847Z,26.13
2019-04-04T02:04:36.735Z,20.47
2019-04-04T02:07:02.891Z,22.57
2019-04-04T02:09:28.742Z,26.77
2019-04-04T02:11:54.625Z,23.00
2019-04-04T02:14:20.471Z,29.30
2019-04-04T02:16:50.814Z,27.63
2019-04-04T02:19:14.113Z,26.93
2019-04-04T02:21:39.989Z,24.90
2019-04-04T02:24:05.835Z,25.80
2019-04-04T02:26:31.699Z,23.50
2019-04-04T02:28:57.695Z,29.23
2019-04-04T02:31:24.130Z,24.53
2019-04-04T02:33:50.013Z,24.13
2019-04-04T02:36:16.758Z,26.53
2019-04-04T02:38:47.145Z,21.80
2019-04-04T02:41:15.536Z,22.43
2019-04-04T02:43:40.767Z,24.70
2019-04-04T02:46:10.994Z,23.63
2019-04-04T02:48:34.377Z,22.70
2019-04-04T02:51:00.251Z,23.70
2019-04-04T02:53:26.137Z,23.60
2019-04-04T02:55:52.046Z,30.23
2019-04-04T02:58:18.009Z,24.53
2019-04-04T03:00:43.852Z,26.80
2019-04-04T03:03:09.720Z,26.13
2019-04-04T03:05:35.576Z,29.70
2019-04-04T03:08:04.283Z,26.73
2019-04-04T03:10:29.255Z,28.00
2019-04-04T03:12:58.488Z,23.60
2019-04-04T03:15:23.616Z,25.70
2019-04-04T03:17:49.461Z,24.33
2019-04-04T03:20:17.335Z,27.47
2019-04-04T03:22:43.047Z,25.87
2019-04-04T03:25:09.000Z,27.43
2019-04-04T03:27:34.856Z,31.70
2019-04-04T03:30:00.867Z,26.07
2019-04-04T03:32:26.756Z,26.10
2019-04-04T03:34:52.749Z,29.13
2019-04-04T03:37:18.555Z,25.40
2019-04-04T03:39:44.427Z,24.07
2019-04-04T03:42:10.271Z,27.10
2019-04-04T03:44:36.111Z,24.00
2019-04-04T03:47:01.970Z,27.27
2019-04-04T03:49:27.813Z,25.50
2019-04-04T03:51:53.725Z,31.47
2019-04-04T03:54:23.359Z,25.97
2019-04-04T03:56:49.334Z,23.93
2019-04-04T03:59:15.195Z,25.20
2019-04-04T04:01:45.499Z,27.80
2019-04-04T04:04:08.949Z,30.03
2019-04-04T04:06:34.789Z,29.73
2019-04-04T04:09:00.649Z,27.90
2019-04-04T04:11:26.499Z,31.20
2019-04-04T04:13:52.392Z,34.63
2019-04-04T04:16:18.236Z,27.07
2019-04-04T04:18:44.096Z,28.80
2019-04-04T04:21:11.117Z,30.50
2019-04-04T04:23:37.266Z,33.57
2019-04-04T04:26:03.144Z,34.50
2019-04-04T04:28:28.979Z,32.20
2019-04-04T04:30:54.972Z,30.60
2019-04-04T04:33:20.842Z,32.20
2019-04-04T04:35:46.766Z,35.23
2019-04-04T04:38:12.588Z,32.23
2019-04-04T04:40:38.444Z,32.23
2019-04-04T04:43:04.435Z,35.70
2019-04-04T04:45:30.307Z,36.00
2019-04-04T04:47:57.329Z,37.37
2019-04-04T04:50:23.340Z,35.90
2019-04-04T04:52:49.328Z,35.90
2019-04-04T04:55:15.323Z,37.93
2019-04-04T04:57:41.205Z,36.27
2019-04-04T05:00:07.338Z,37.87
2019-04-04T05:02:33.228Z,38.90
2019-04-04T05:04:59.399Z,39.80
2019-04-04T05:07:25.852Z,37.93
2019-04-04T05:09:51.707Z,37.60
2019-04-04T05:12:17.583Z,36.77
2019-04-04T05:14:43.473Z,38.13
2019-04-04T05:17:10.133Z,36.57
2019-04-04T05:19:36.521Z,35.40
2019-04-04T05:22:02.456Z,39.37
2019-04-04T05:24:28.397Z,40.90
2019-04-04T05:26:54.426Z,37.40
2019-04-04T05:29:20.285Z,42.90
2019-04-04T05:31:46.172Z,42.03
2019-04-04T05:34:12.307Z,36.43
2019-04-04T05:36:38.186Z,37.57
2019-04-04T05:39:06.055Z,38.97
2019-04-04T05:41:31.923Z,31.37
2019-04-04T05:43:57.800Z,32.27
2019-04-04T05:46:23.629Z,36.83
2019-04-04T05:48:49.518Z,36.23
2019-04-04T05:51:15.975Z,36.43
2019-04-04T05:53:41.943Z,36.67
2019-04-04T05:56:07.801Z,35.47
2019-04-04T05:58:33.665Z,37.37
2019-04-04T06:01:01.659Z,32.57
2019-04-04T06:03:27.507Z,34.27
2019-04-04T06:05:53.382Z,33.50
2019-04-04T06:08:19.224Z,34.73
2019-04-04T06:10:45.094Z,32.87
2019-04-04T06:13:10.929Z,31.70
2019-04-04T06:15:36.840Z,31.37
2019-04-04T06:18:02.674Z,33.30
2019-04-04T06:20:28.847Z,35.40
2019-04-04T06:22:54.720Z,34.07
2019-04-04T06:25:20.597Z,35.83
2019-04-04T06:27:46.437Z,31.50
2019-04-04T06:30:12.509Z,31.23
2019-04-04T06:32:39.026Z,34.40
2019-04-04T06:35:05.065Z,30.43
2019-04-04T06:37:31.021Z,35.57
2019-04-04T06:39:58.971Z,32.23
2019-04-04T06:42:24.676Z,35.63
2019-04-04T06:44:50.529Z,31.43
2019-04-04T06:47:16.645Z,30.87
2019-04-04T06:49:45.557Z,26.97
2019-04-04T06:52:10.369Z,26.20
2019-04-04T06:54:36.226Z,26.13
2019-04-04T06:57:04.112Z,24.67
2019-04-04T06:59:29.845Z,24.20
2019-04-04T07:01:55.711Z,19.93
2019-04-04T07:04:21.856Z,20.20
2019-04-04T07:06:47.741Z,18.53
2019-04-04T07:09:13.703Z,18.40
2019-04-04T07:11:39.555Z,16.80
2019-04-04T07:14:05.407Z,17.23
2019-04-04T07:16:31.267Z,18.27
2019-04-04T07:18:57.101Z,13.33
2019-04-04T07:21:23.000Z,14.90
2019-04-04T07:23:48.846Z,15.10
2019-04-04T07:26:14.995Z,15.93
2019-04-04T07:28:40.850Z,14.10
2019-04-04T07:31:06.669Z,13.23
2019-04-04T07:33:32.518Z,13.77
2019-04-04T07:35:58.354Z,14.50
2019-04-04T07:38:24.238Z,13.50
2019-04-04T07:40:50.072Z,11.57
2019-04-04T07:43:17.114Z,10.53
2019-04-04T07:45:43.696Z,12.40
2019-04-04T07:48:12.161Z,13.07
2019-04-04T07:50:37.290Z,12.27
2019-04-04T07:53:04.858Z,10.30
2019-04-04T07:55:31.025Z,17.30
2019-04-04T07:57:56.866Z,10.03
2019-04-04T08:00:22.743Z,9.93
2019-04-04T08:02:48.575Z,11.03
2019-04-04T08:05:14.562Z,12.17
2019-04-04T08:07:40.393Z,11.67
2019-04-04T08:10:06.471Z,10.30
2019-04-04T08:12:32.440Z,8.37
2019-04-04T08:14:58.286Z,10.10
2019-04-04T08:17:24.143Z,8.37
2019-04-04T08:19:59.097Z,7.60
2019-04-04T08:22:17.807Z,7.67
2019-04-04T08:24:43.699Z,7.13
2019-04-04T08:27:09.571Z,8.10
2019-04-04T08:29:35.408Z,6.03
2019-04-04T08:32:01.270Z,7.17
2019-04-04T08:34:28.214Z,5.20
2019-04-04T08:36:54.091Z,6.73
2019-04-04T08:39:19.961Z,7.77
2019-04-04T08:41:45.800Z,7.20
2019-04-04T08:44:11.637Z,5.97
2019-04-04T08:46:37.584Z,6.77
2019-04-04T08:49:03.436Z,6.33
2019-04-04T08:51:29.411Z,5.30
2019-04-04T08:53:55.250Z,4.60
2019-04-04T08:56:21.132Z,5.43
2019-04-04T08:58:46.990Z,5.00
2019-04-04T09:01:12.881Z,5.10
2019-04-04T09:03:38.721Z,5.27
2019-04-04T09:06:04.760Z,4.70
2019-04-04T09:08:30.610Z,4.07
2019-04-04T09:10:56.558Z,5.00
2019-04-04T09:13:22.415Z,4.20
2019-04-04T09:15:48.353Z,5.60
2019-04-04T09:18:14.233Z,5.20
2019-04-04T09:20:40.186Z,4.57
2019-04-04T09:23:06.052Z,5.97
2019-04-04T09:25:31.984Z,4.50
2019-04-04T09:27:57.828Z,7.07
2019-04-04T09:30:24.096Z,3.60
2019-04-04T09:32:50.065Z,3.60
2019-04-04T09:35:16.237Z,4.20
2019-04-04T09:37:42.357Z,3.57
2019-04-04T09:40:09.319Z,4.10
2019-04-04T09:42:35.172Z,3.30
2019-04-04T09:45:01.054Z,4.33
2019-04-04T09:47:27.003Z,6.23
2019-04-04T09:49:52.865Z,6.00
2019-04-04T09:52:18.741Z,4.17
2019-04-04T09:54:44.634Z,4.67
2019-04-04T09:57:10.518Z,4.30
2019-04-04T09:59:36.364Z,4.30
2019-04-04T10:02:02.311Z,7.10
2019-04-04T10:04:28.147Z,5.30
2019-04-04T10:06:54.123Z,4.47
2019-04-04T10:09:20.097Z,3.73
2019-04-04T10:11:45.960Z,4.83
2019-04-04T10:14:11.827Z,4.30
2019-04-04T10:16:37.679Z,4.23
2019-04-04T10:19:03.532Z,4.80
2019-04-04T10:21:29.383Z,8.53
2019-04-04T10:23:55.239Z,5.40
2019-04-04T10:26:21.081Z,5.00
2019-04-04T10:28:46.975Z,4.90
2019-04-04T10:31:12.799Z,4.17
2019-04-04T10:33:38.665Z,3.93
2019-04-04T10:36:04.529Z,7.77
2019-04-04T10:38:30.400Z,5.40
2019-04-04T10:40:56.238Z,4.63
2019-04-04T10:43:22.101Z,5.03
2019-04-04T10:45:48.252Z,5.50
2019-04-04T10:48:14.107Z,4.53
2019-04-04T10:50:39.943Z,4.90
2019-04-04T10:53:05.820Z,9.10
2019-04-04T10:55:31.664Z,6.07
2019-04-04T10:57:57.538Z,10.93
2019-04-04T11:00:23.474Z,5.47
2019-04-04T11:02:49.363Z,5.03
2019-04-04T11:05:15.488Z,6.50
2019-04-04T11:07:41.607Z,4.50
2019-04-04T11:10:07.670Z,5.43
2019-04-04T11:12:34.364Z,4.90
2019-04-04T11:15:00.401Z,4.83
2019-04-04T11:17:26.264Z,5.50
2019-04-04T11:19:52.200Z,4.90
2019-04-04T11:22:18.054Z,5.13
2019-04-04T11:24:43.904Z,6.10
2019-04-04T11:27:09.750Z,6.53
2019-04-04T11:29:35.577Z,7.50
2019-04-04T11:32:01.555Z,5.27
2019-04-04T11:34:27.407Z,5.23
2019-04-04T11:36:53.266Z,5.67
2019-04-04T11:39:19.127Z,5.60
2019-04-04T11:41:44.956Z,6.17
2019-04-04T11:44:10.838Z,6.20
2019-04-04T11:46:36.690Z,6.00
2019-04-04T11:49:02.561Z,5.87
2019-04-04T11:51:28.567Z,5.00
2019-04-04T11:53:54.402Z,5.10
2019-04-04T11:56:20.254Z,5.47
2019-04-04T11:58:46.119Z,5.17
2019-04-04T12:01:13.884Z,4.87
2019-04-04T12:03:39.725Z,4.80
2019-04-04T12:06:05.596Z,8.50
2019-04-04T12:08:31.569Z,5.93
2019-04-04T12:10:57.455Z,6.40
2019-04-04T12:13:23.309Z,5.57
2019-04-04T12:15:49.221Z,14.80
2019-04-04T12:18:15.182Z,5.50
2019-04-04T12:20:43.380Z,4.97
2019-04-04T12:23:08.772Z,5.80
2019-04-04T12:25:34.739Z,5.00
2019-04-04T12:28:00.583Z,6.67
2019-04-04T12:30:26.472Z,5.27
2019-04-04T12:32:52.308Z,5.63
2019-04-04T12:35:18.250Z,5.73
2019-04-04T12:37:44.226Z,4.93
2019-04-04T12:40:19.917Z,5.03
2019-04-04T12:42:37.970Z,4.93
2019-04-04T12:45:06.930Z,4.77
2019-04-04T12:47:32.882Z,4.33
2019-04-04T12:49:58.705Z,4.37
2019-04-04T12:52:24.608Z,6.23
2019-04-04T12:54:50.448Z,4.97
2019-04-04T12:57:16.299Z,4.07
2019-04-04T12:59:42.171Z,5.07
2019-04-04T13:02:08.031Z,4.47
2019-04-04T13:04:33.892Z,6.60
2019-04-04T13:06:59.749Z,5.60
2019-04-04T13:09:25.671Z,5.40
2019-04-04T13:11:51.515Z,5.20
2019-04-04T13:14:17.361Z,4.97
2019-04-04T13:16:43.253Z,5.93
2019-04-04T13:19:09.088Z,4.63
2019-04-04T13:21:34.947Z,5.33
2019-04-04T13:24:00.918Z,5.03
2019-04-04T13:26:26.754Z,5.33
2019-04-04T13:28:52.621Z,8.33
2019-04-04T13:31:18.480Z,4.63
2019-04-04T13:33:44.403Z,4.30
2019-04-04T13:36:10.246Z,5.80
2019-04-04T13:38:36.148Z,6.17
2019-04-04T13:41:02.081Z,4.50
2019-04-04T13:43:27.953Z,4.20
2019-04-04T13:45:53.844Z,5.33
2019-04-04T13:48:19.814Z,3.23
2019-04-04T13:50:45.684Z,3.87
2019-04-04T13:53:11.568Z,4.00
2019-04-04T13:55:39.312Z,7.70
2019-04-04T13:58:05.421Z,3.40
2019-04-04T14:00:31.507Z,3.30
2019-04-04T14:02:57.464Z,4.80
2019-04-04T14:05:23.377Z,3.83
2019-04-04T14:07:49.222Z,4.10
2019-04-04T14:10:17.558Z,2.90
2019-04-04T14:12:43.029Z,3.10
2019-04-04T14:15:09.086Z,3.17
2019-04-04T14:17:34.978Z,3.10
2019-04-04T14:20:00.834Z,7.43
2019-04-04T14:22:26.803Z,8.10
2019-04-04T14:24:52.655Z,7.63
2019-04-04T14:27:18.860Z,10.90
2019-04-04T14:29:44.986Z,9.37
2019-04-04T14:32:10.846Z,9.40
2019-04-04T14:34:36.772Z,11.80
2019-04-04T14:37:02.840Z,10.73
2019-04-04T14:39:28.702Z,12.10
2019-04-04T14:41:54.555Z,10.63
2019-04-04T14:44:20.436Z,12.87
2019-04-04T14:46:46.282Z,14.50
2019-04-04T14:49:12.377Z,31.87
2019-04-04T14:51:40.106Z,16.57
2019-04-04T14:54:08.224Z,20.97
2019-04-04T14:56:34.391Z,16.70
2019-04-04T14:59:00.261Z,16.13
2019-04-04T15:01:26.111Z,16.47
2019-04-04T15:03:52.046Z,15.63
2019-04-04T15:06:17.935Z,16.50
2019-04-04T15:08:43.925Z,16.37
2019-04-04T15:11:09.784Z,17.13
2019-04-04T15:13:35.759Z,17.10
2019-04-04T15:16:16.022Z,16.67
2019-04-04T15:18:42.368Z,15.87
2019-04-04T15:21:08.569Z,19.27
2019-04-04T15:23:34.432Z,17.60
2019-04-04T15:26:00.314Z,17.57
2019-04-04T15:28:26.282Z,17.73
2019-04-04T15:30:52.214Z,18.13
2019-04-04T15:33:18.090Z,19.20
2019-04-04T15:35:43.994Z,16.70
2019-04-04T15:38:09.863Z,19.33
2019-04-04T15:40:35.727Z,18.40
2019-04-04T15:43:01.586Z,18.07
2019-04-04T15:45:27.440Z,20.10
2019-04-04T15:47:53.292Z,18.10
2019-04-04T15:50:19.167Z,17.00
2019-04-04T15:52:45.077Z,17.93
2019-04-04T15:55:11.201Z,17.90
2019-04-04T15:57:36.995Z,17.63
2019-04-04T16:00:05.359Z,18.20
2019-04-04T16:02:31.362Z,17.87
2019-04-04T16:04:57.321Z,18.03
2019-04-04T16:07:23.184Z,17.53
2019-04-04T16:09:49.058Z,15.60
2019-04-04T16:12:14.957Z,17.17
2019-04-04T16:14:40.809Z,19.57
2019-04-04T16:17:06.683Z,14.60
2019-04-04T16:19:32.546Z,15.70
2019-04-04T16:21:58.430Z,21.17
2019-04-04T16:24:24.299Z,17.97
2019-04-04T16:26:50.299Z,18.10
2019-04-04T16:29:16.151Z,20.00
2019-04-04T16:31:42.012Z,17.70
2019-04-04T16:34:07.881Z,17.80
2019-04-04T16:36:33.729Z,17.30
2019-04-04T16:38:59.609Z,18.60
2019-04-04T16:41:25.502Z,18.80
2019-04-04T16:43:51.381Z,16.77
2019-04-04T16:46:17.325Z,16.63
2019-04-04T16:48:43.183Z,16.13
2019-04-04T16:51:09.035Z,20.67
2019-04-04T16:53:34.892Z,17.47
2019-04-04T16:56:00.742Z,17.10
2019-04-04T16:58:26.700Z,16.47
2019-04-04T17:00:52.591Z,16.63
2019-04-04T17:03:18.434Z,16.23
2019-04-04T17:05:44.337Z,18.60
2019-04-04T17:08:10.273Z,16.87
2019-04-04T17:10:36.248Z,22.10
2019-04-04T17:13:02.089Z,18.10
2019-04-04T17:15:27.958Z,18.23
2019-04-04T17:17:53.788Z,16.97
2019-04-04T17:20:20.864Z,16.83
2019-04-04T17:22:46.814Z,16.97
2019-04-04T17:25:12.769Z,16.27
2019-04-04T17:27:38.609Z,18.27
2019-04-04T17:30:05.360Z,13.10
2019-04-04T17:32:31.666Z,15.63
2019-04-04T17:34:57.532Z,16.10
2019-04-04T17:37:23.940Z,15.80
2019-04-04T17:39:50.082Z,15.83
2019-04-04T17:42:28.251Z,16.13
2019-04-04T17:44:44.326Z,16.77
2019-04-04T17:47:10.233Z,17.47
2019-04-04T17:49:36.527Z,16.90
2019-04-04T17:52:02.904Z,16.23
2019-04-04T17:54:29.049Z,16.90
2019-04-04T17:56:54.937Z,15.60
2019-04-04T17:59:20.795Z,14.30
2019-04-04T18:01:46.637Z,15.63
2019-04-04T18:04:12.489Z,17.83
2019-04-04T18:06:40.685Z,20.03
2019-04-04T18:09:06.925Z,19.30
2019-04-04T18:11:32.850Z,16.77
2019-04-04T18:13:58.744Z,16.67
2019-04-04T18:16:24.638Z,17.37
2019-04-04T18:18:50.502Z,18.00
2019-04-04T18:21:16.384Z,17.93
2019-04-04T18:23:42.253Z,16.03
2019-04-04T18:26:08.112Z,14.93
2019-04-04T18:28:35.257Z,17.73
2019-04-04T18:31:01.167Z,13.97
2019-04-04T18:33:27.427Z,19.70
2019-04-04T18:35:53.414Z,16.13
2019-04-04T18:38:19.450Z,14.53
2019-04-04T18:40:45.307Z,13.97
2019-04-04T18:43:11.304Z,14.33
2019-04-04T18:45:37.300Z,18.30
2019-04-04T18:48:03.262Z,16.70
2019-04-04T18:50:29.096Z,15.63
2019-04-04T18:52:54.954Z,14.37
2019-04-04T18:55:20.823Z,14.40
2019-04-04T18:57:46.652Z,15.30
2019-04-04T19:00:12.906Z,15.33
2019-04-04T19:02:39.351Z,13.23
2019-04-04T19:05:05.603Z,16.23
2019-04-04T19:07:39.329Z,13.13
2019-04-04T19:09:59.245Z,12.83
2019-04-04T19:12:25.089Z,12.50
2019-04-04T19:14:50.978Z,15.37
2019-04-04T19:17:16.943Z,14.87
2019-04-04T19:19:42.869Z,15.00
2019-04-04T19:22:08.790Z,14.07
2019-04-04T19:24:34.656Z,14.27
2019-04-04T19:27:00.498Z,15.57
2019-04-04T19:29:26.336Z,13.77
2019-04-04T19:31:52.298Z,13.30
2019-04-04T19:34:18.481Z,16.53
2019-04-04T19:36:44.359Z,15.07
2019-04-04T19:39:12.191Z,18.57
2019-04-04T19:41:38.056Z,16.80
2019-04-04T19:44:03.931Z,16.70
2019-04-04T19:46:36.932Z,17.07
2019-04-04T19:48:57.686Z,15.97
2019-04-04T19:51:23.533Z,18.90
2019-04-04T19:53:49.420Z,17.27
2019-04-04T19:56:15.369Z,17.67
2019-04-04T19:58:41.314Z,21.40
2019-04-04T20:01:08.082Z,17.73
2019-04-04T20:03:33.952Z,16.73
2019-04-04T20:05:59.897Z,16.37
2019-04-04T20:08:26.255Z,17.10
2019-04-04T20:10:52.233Z,13.97
2019-04-04T20:13:29.924Z,16.73
2019-04-04T20:15:45.868Z,18.67
2019-04-04T20:18:11.796Z,18.20
2019-04-04T20:20:37.648Z,15.90
2019-04-04T20:23:03.505Z,16.90
2019-04-04T20:25:29.367Z,15.17
2019-04-04T20:27:55.393Z,14.47
2019-04-04T20:30:36.029Z,18.20
2019-04-04T20:33:01.904Z,17.37
2019-04-04T20:35:27.766Z,13.50
2019-04-04T20:37:53.611Z,17.43
2019-04-04T20:40:19.453Z,19.90
2019-04-04T20:42:45.291Z,16.33
2019-04-04T20:45:11.329Z,18.87
2019-04-04T20:47:37.175Z,15.30
2019-04-04T20:50:06.405Z,17.80
2019-04-04T20:52:32.232Z,17.83
2019-04-04T20:54:58.110Z,15.53
2019-04-04T20:57:23.961Z,14.93
2019-04-04T20:59:49.845Z,10.97
2019-04-04T21:02:15.694Z,13.10
2019-04-04T21:04:41.540Z,17.27
2019-04-04T21:07:09.300Z,15.80
2019-04-04T21:09:35.137Z,12.57
2019-04-04T21:12:00.993Z,17.30
2019-04-04T21:14:26.830Z,13.60
2019-04-04T21:16:52.694Z,13.47
2019-04-04T21:19:18.544Z,15.50
2019-04-04T21:21:44.399Z,14.03
2019-04-04T21:24:10.261Z,16.10
2019-04-04T21:26:36.129Z,14.60
2019-04-04T21:29:01.981Z,15.50
2019-04-04T21:31:27.827Z,14.40
2019-04-04T21:33:53.664Z,16.10
2019-04-04T21:36:19.519Z,15.00
2019-04-04T21:38:45.399Z,16.27
2019-04-04T21:41:11.250Z,16.27
2019-04-04T21:43:37.103Z,19.00
2019-04-04T21:46:03.039Z,12.73
2019-04-04T21:48:28.981Z,15.27
2019-04-04T21:50:54.836Z,16.10
2019-04-04T21:53:21.548Z,17.80
2019-04-04T21:55:47.369Z,17.20
2019-04-04T21:58:13.204Z,19.43
2019-04-04T22:00:43.518Z,16.03
2019-04-04T22:03:09.590Z,19.80
2019-04-04T22:05:35.430Z,16.90
2019-04-04T22:08:01.280Z,18.57
2019-04-04T22:10:27.141Z,16.80
2019-04-04T22:12:52.959Z,17.90
2019-04-04T22:15:18.809Z,17.47
2019-04-04T22:17:44.632Z,16.90
2019-04-04T22:20:10.611Z,18.73
2019-04-04T22:22:37.687Z,18.50
2019-04-04T22:25:07.031Z,18.10
2019-04-04T22:27:32.865Z,20.00
2019-04-04T22:29:58.720Z,19.30
2019-04-04T22:32:24.560Z,22.70
2019-04-04T22:34:50.391Z,19.77
2019-04-04T22:37:16.228Z,19.53
2019-04-04T22:39:42.084Z,23.87
2019-04-04T22:42:07.920Z,19.73
2019-04-04T22:44:35.298Z,22.70
2019-04-04T22:47:01.231Z,14.43
2019-04-04T22:49:27.060Z,20.67
2019-04-04T22:51:53.007Z,23.63
2019-04-04T22:54:18.860Z,17.83
2019-04-04T22:56:44.705Z,19.57
2019-04-04T22:59:10.535Z,19.30
2019-04-04T23:01:36.456Z,20.67
2019-04-04T23:04:02.326Z,21.60
2019-04-04T23:06:28.184Z,25.00
2019-04-04T23:08:54.001Z,23.17
2019-04-04T23:11:19.838Z,21.90
2019-04-04T23:13:45.674Z,24.40
2019-04-04T23:16:11.542Z,19.23
2019-04-04T23:18:37.380Z,20.50
2019-04-04T23:21:03.342Z,23.70
2019-04-04T23:23:29.194Z,17.73
2019-04-04T23:25:55.044Z,25.63
2019-04-04T23:28:20.970Z,16.43
2019-04-04T23:30:46.859Z,21.37
2019-04-04T23:33:12.714Z,19.50
2019-04-04T23:35:38.735Z,17.20
2019-04-04T23:38:04.579Z,21.13
2019-04-04T23:40:30.496Z,21.10
2019-04-04T23:42:56.341Z,16.97
2019-04-04T23:45:22.174Z,16.20
2019-04-04T23:47:48.031Z,14.73
2019-04-04T23:50:14.177Z,15.90
2019-04-04T23:52:40.027Z,16.03
2019-04-04T23:55:06.095Z,17.50
2019-04-04T23:57:31.957Z,15.77
2019-04-04T23:59:57.808Z,19.10
